createdAt,value
2024-05-09T00:00:39.789Z,1.92
2024-05-09T00:03:11.498Z,2.00
2024-05-09T00:05:41.079Z,2.20
2024-05-09T00:08:08.928Z,2.35
2024-05-09T00:10:38.042Z,2.42
2024-05-09T00:13:07.232Z,2.20
2024-05-09T00:15:35.108Z,2.47
2024-05-09T00:18:08.128Z,2.92
2024-05-09T00:20:39.098Z,2.92
2024-05-09T00:23:12.287Z,2.13
2024-05-09T00:25:40.441Z,1.88
2024-05-09T00:28:07.028Z,3.03
2024-05-09T00:30:37.240Z,2.95
2024-05-09T00:33:09.000Z,4.13
2024-05-09T00:35:37.122Z,2.33
2024-05-09T00:38:06.383Z,2.75
2024-05-09T00:40:40.278Z,2.50
2024-05-09T00:43:12.595Z,2.28
2024-05-09T00:45:42.903Z,1.80
2024-05-09T00:48:13.445Z,2.20
2024-05-09T00:50:44.099Z,2.15
2024-05-09T00:53:12.836Z,2.78
2024-05-09T00:55:40.179Z,2.40
2024-05-09T00:58:09.172Z,2.40
2024-05-09T01:00:39.720Z,2.28
2024-05-09T01:03:10.030Z,2.20
2024-05-09T01:05:39.069Z,2.30
2024-05-09T01:08:06.654Z,2.35
2024-05-09T01:10:36.387Z,2.40
2024-05-09T01:13:04.527Z,2.60
2024-05-09T01:15:31.309Z,2.42
2024-05-09T01:17:58.907Z,2.65
2024-05-09T01:20:36.799Z,3.00
2024-05-09T01:23:09.435Z,1.83
2024-05-09T01:25:36.419Z,2.55
2024-05-09T01:28:03.028Z,2.40
2024-05-09T01:30:34.786Z,1.88
2024-05-09T01:33:04.844Z,1.95
2024-05-09T01:35:32.090Z,3.05
2024-05-09T01:37:58.741Z,2.15
2024-05-09T01:40:35.417Z,2.10
2024-05-09T01:43:08.920Z,2.35
2024-05-09T01:45:36.529Z,2.40
2024-05-09T01:48:05.609Z,2.60
2024-05-09T01:50:39.579Z,2.67
2024-05-09T01:53:10.277Z,2.38
2024-05-09T01:55:39.398Z,2.40
2024-05-09T01:58:06.213Z,2.30
2024-05-09T02:00:39.156Z,2.40
2024-05-09T02:03:15.315Z,2.28
2024-05-09T02:05:45.415Z,2.42
2024-05-09T02:08:17.787Z,2.03
2024-05-09T02:10:48.166Z,2.40
2024-05-09T02:13:15.564Z,2.15
2024-05-09T02:15:42.484Z,2.72
2024-05-09T02:18:10.270Z,3.22
2024-05-09T02:20:41.308Z,2.80
2024-05-09T02:23:09.386Z,2.40
2024-05-09T02:25:36.218Z,2.10
2024-05-09T02:28:02.920Z,2.15
2024-05-09T02:30:38.738Z,2.47
2024-05-09T02:33:09.261Z,2.25
2024-05-09T02:35:37.069Z,1.95
2024-05-09T02:38:04.333Z,2.22
2024-05-09T02:40:36.804Z,2.10
2024-05-09T02:43:10.708Z,2.10
2024-05-09T02:45:38.635Z,2.33
2024-05-09T02:48:06.501Z,2.53
2024-05-09T02:50:40.563Z,2.58
2024-05-09T02:53:10.703Z,2.40
2024-05-09T02:55:40.742Z,2.17
2024-05-09T02:58:07.851Z,2.40
2024-05-09T03:03:09.569Z,2.50
2024-05-09T03:05:37.747Z,2.35
2024-05-09T03:08:07.557Z,2.40
2024-05-09T03:10:36.786Z,2.95
2024-05-09T03:13:16.304Z,2.90
2024-05-09T03:15:46.489Z,3.50
2024-05-09T03:18:13.538Z,3.03
2024-05-09T03:20:40.568Z,2.47
2024-05-09T03:23:09.458Z,2.20
2024-05-09T03:25:37.090Z,2.13
2024-05-09T03:28:03.890Z,2.47
2024-05-09T03:30:39.358Z,2.40
2024-05-09T03:33:17.668Z,2.60
2024-05-09T03:35:46.421Z,2.40
2024-05-09T03:38:13.308Z,2.72
2024-05-09T03:40:47.909Z,2.25
2024-05-09T03:43:14.868Z,2.70
2024-05-09T03:45:45.348Z,3.53
2024-05-09T03:48:12.671Z,5.78
2024-05-09T03:50:39.767Z,4.25
2024-05-09T03:53:10.023Z,2.92
2024-05-09T03:55:36.720Z,3.10
2024-05-09T03:58:03.319Z,2.63
2024-05-09T04:00:37.356Z,2.75
2024-05-09T04:03:09.150Z,2.60
2024-05-09T04:05:39.702Z,2.88
2024-05-09T04:08:07.101Z,2.92
2024-05-09T04:10:35.012Z,2.92
2024-05-09T04:13:05.256Z,2.83
2024-05-09T04:15:32.311Z,2.67
2024-05-09T04:17:59.323Z,2.60
2024-05-09T04:20:36.833Z,2.90
2024-05-09T04:23:07.287Z,2.75
2024-05-09T04:25:34.767Z,2.83
2024-05-09T04:28:01.397Z,2.60
2024-05-09T04:30:38.167Z,2.72
2024-05-09T04:35:37.932Z,2.63
2024-05-09T04:38:05.334Z,2.70
2024-05-09T04:40:35.476Z,2.90
2024-05-09T04:43:04.645Z,2.58
2024-05-09T04:45:31.283Z,3.03
2024-05-09T04:47:58.448Z,2.78
2024-05-09T04:50:33.508Z,2.90
2024-05-09T04:53:05.177Z,3.20
2024-05-09T04:55:33.137Z,3.10
2024-05-09T04:58:02.260Z,3.33
2024-05-09T05:00:35.615Z,2.85
2024-05-09T05:03:07.039Z,2.90
2024-05-09T05:05:37.351Z,2.97
2024-05-09T05:08:04.430Z,2.80
2024-05-09T05:13:17.946Z,2.55
2024-05-09T05:15:49.572Z,2.92
2024-05-09T05:18:19.294Z,3.03
2024-05-09T05:20:46.326Z,3.15
2024-05-09T05:23:15.102Z,3.13
2024-05-09T05:25:47.818Z,2.75
2024-05-09T05:28:16.382Z,2.55
2024-05-09T05:30:43.038Z,2.88
2024-05-09T05:33:11.479Z,3.03
2024-05-09T05:35:38.140Z,2.88
2024-05-09T05:38:08.152Z,3.00
2024-05-09T05:40:38.561Z,2.63
2024-05-09T05:43:15.578Z,2.70
2024-05-09T05:45:42.134Z,2.40
2024-05-09T05:48:09.949Z,2.63
2024-05-09T05:50:39.307Z,3.30
2024-05-09T05:53:07.891Z,2.78
2024-05-09T05:55:35.980Z,2.65
2024-05-09T05:58:03.244Z,3.10
2024-05-09T06:00:37.346Z,3.50
2024-05-09T06:03:06.269Z,2.80
2024-05-09T06:05:33.202Z,2.78
2024-05-09T06:10:36.936Z,2.80
2024-05-09T06:13:06.251Z,3.00
2024-05-09T06:15:32.758Z,2.90
2024-05-09T06:18:02.086Z,3.15
2024-05-09T06:20:36.419Z,2.80
2024-05-09T06:23:10.722Z,2.40
2024-05-09T06:25:38.207Z,2.80
2024-05-09T06:28:05.743Z,2.90
2024-05-09T06:30:38.856Z,2.78
2024-05-09T06:33:09.897Z,2.88
2024-05-09T06:35:37.963Z,2.00
2024-05-09T06:38:05.152Z,2.63
2024-05-09T06:40:37.888Z,2.60
2024-05-09T06:43:13.334Z,2.83
2024-05-09T06:45:40.247Z,2.30
2024-05-09T06:50:37.895Z,2.38
2024-05-09T06:53:08.596Z,2.00
2024-05-09T06:55:36.316Z,2.95
2024-05-09T06:58:05.800Z,2.50
2024-05-09T07:00:39.320Z,2.00
2024-05-09T07:03:16.827Z,1.83
2024-05-09T07:05:46.522Z,1.88
2024-05-09T07:08:16.572Z,2.28
2024-05-09T07:10:43.379Z,1.70
2024-05-09T07:13:15.155Z,2.10
2024-05-09T07:15:43.619Z,2.13
2024-05-09T07:18:20.340Z,1.83
2024-05-09T07:20:51.285Z,2.42
2024-05-09T07:23:18.554Z,2.22
2024-05-09T07:25:47.835Z,2.28
2024-05-09T07:28:20.372Z,1.90
2024-05-09T07:30:47.231Z,2.40
2024-05-09T07:33:22.424Z,2.30
2024-05-09T07:35:50.357Z,2.15
2024-05-09T07:38:17.159Z,3.25
2024-05-09T07:40:43.805Z,3.15
2024-05-09T07:43:13.909Z,2.47
2024-05-09T07:45:50.420Z,7.38
2024-05-09T07:53:39.016Z,2.70
2024-05-09T07:56:09.424Z,1.92
2024-05-09T07:58:36.992Z,2.13
2024-05-09T08:03:35.323Z,2.05
2024-05-09T08:06:01.988Z,2.25
2024-05-09T08:08:28.668Z,1.92
2024-05-09T08:10:55.314Z,2.85
2024-05-09T08:13:22.063Z,2.60
2024-05-09T08:15:48.861Z,2.72
2024-05-09T08:18:15.557Z,1.63
2024-05-09T08:20:44.544Z,2.05
2024-05-09T08:23:11.377Z,1.58
2024-05-09T08:25:38.703Z,1.95
2024-05-09T08:28:05.660Z,2.45
2024-05-09T08:33:06.279Z,2.00
2024-05-09T08:35:34.110Z,1.60
2024-05-09T08:38:03.308Z,2.20
2024-05-09T08:40:36.016Z,2.47
2024-05-09T08:43:09.027Z,2.08
2024-05-09T08:45:38.847Z,1.75
2024-05-09T08:48:08.217Z,1.40
2024-05-09T08:50:39.883Z,1.85
2024-05-09T08:53:07.886Z,2.13
2024-05-09T08:55:40.700Z,1.60
2024-05-09T08:58:14.154Z,2.20
2024-05-09T09:00:43.067Z,1.83
2024-05-09T09:03:12.780Z,1.95
2024-05-09T09:05:42.083Z,1.98
2024-05-09T09:08:09.070Z,2.08
2024-05-09T09:13:09.638Z,2.67
2024-05-09T09:15:47.367Z,1.77
2024-05-09T09:18:17.480Z,1.70
2024-05-09T09:20:46.601Z,2.00
2024-05-09T09:23:13.177Z,2.45
2024-05-09T09:25:40.594Z,2.60
2024-05-09T09:28:09.841Z,3.17
2024-05-09T09:30:43.119Z,1.90
2024-05-09T09:33:10.545Z,1.70
2024-05-09T09:35:39.817Z,1.52
2024-05-09T09:38:08.217Z,1.60
2024-05-09T09:40:40.771Z,1.60
2024-05-09T09:43:17.696Z,1.38
2024-05-09T09:45:46.452Z,1.30
2024-05-09T09:48:17.170Z,1.10
2024-05-09T09:50:45.296Z,1.50
2024-05-09T09:53:16.077Z,1.25
2024-05-09T09:55:43.358Z,1.58
2024-05-09T09:58:13.476Z,1.40
2024-05-09T10:00:41.558Z,1.20
2024-05-09T10:03:08.489Z,1.30
2024-05-09T10:05:35.889Z,3.97
2024-05-09T10:08:10.552Z,3.28
2024-05-09T10:10:37.364Z,1.63
2024-05-09T10:13:05.423Z,1.50
2024-05-09T10:15:45.129Z,1.50
2024-05-09T10:18:11.815Z,1.30
2024-05-09T10:20:42.253Z,1.60
2024-05-09T10:23:28.167Z,2.35
2024-05-09T10:26:05.398Z,1.55
2024-05-09T10:28:36.853Z,1.77
2024-05-09T10:31:11.287Z,1.10
2024-05-09T10:33:46.255Z,2.20
2024-05-09T10:36:26.414Z,1.30
2024-05-09T10:38:54.271Z,1.50
2024-05-09T10:41:23.789Z,1.52
2024-05-09T10:43:51.612Z,1.30
2024-05-09T10:46:20.703Z,1.52
2024-05-09T10:48:48.451Z,1.60
2024-05-09T10:51:21.794Z,1.48
2024-05-09T10:53:52.455Z,1.63
2024-05-09T10:56:19.080Z,2.08
2024-05-09T10:58:45.636Z,1.77
2024-05-09T11:01:13.299Z,1.60
2024-05-09T11:03:40.467Z,1.80
2024-05-09T11:06:07.744Z,1.80
2024-05-09T11:08:35.883Z,1.35
2024-05-09T11:11:07.770Z,1.42
2024-05-09T11:16:04.783Z,1.40
2024-05-09T11:18:36.192Z,1.73
2024-05-09T11:21:12.850Z,1.50
2024-05-09T11:23:42.117Z,1.35
2024-05-09T11:26:11.287Z,2.70
2024-05-09T11:28:40.190Z,1.70
2024-05-09T11:31:09.847Z,3.83
2024-05-09T11:33:39.278Z,2.95
2024-05-09T11:36:07.019Z,1.52
2024-05-09T11:38:33.759Z,1.70
2024-05-09T11:41:00.331Z,1.95
2024-05-09T11:43:27.001Z,1.50
2024-05-09T11:48:20.484Z,1.67
2024-05-09T11:50:51.952Z,1.60
2024-05-09T11:53:18.502Z,1.70
2024-05-09T11:55:45.106Z,1.42
2024-05-09T12:00:47.175Z,1.63
2024-05-09T12:03:14.457Z,1.40
2024-05-09T12:05:41.387Z,1.60
2024-05-09T12:08:08.279Z,1.83
2024-05-09T12:10:36.412Z,1.30
2024-05-09T12:13:06.173Z,1.70
2024-05-09T12:15:36.413Z,1.60
2024-05-09T12:18:07.833Z,1.38
2024-05-09T12:20:40.331Z,1.60
2024-05-09T12:23:09.785Z,1.40
2024-05-09T12:25:40.822Z,1.50
2024-05-09T12:28:08.081Z,1.27
2024-05-09T12:30:38.748Z,1.35
2024-05-09T12:33:08.441Z,1.40
2024-05-09T12:35:37.646Z,1.35
2024-05-09T12:38:04.935Z,1.63
2024-05-09T12:40:37.114Z,1.35
2024-05-09T12:43:10.324Z,1.42
2024-05-09T12:45:38.526Z,1.52
2024-05-09T12:48:08.353Z,1.55
2024-05-09T12:50:35.984Z,1.60
2024-05-09T12:53:03.985Z,1.40
2024-05-09T12:55:41.268Z,1.50
2024-05-09T12:58:16.370Z,1.27
2024-05-09T13:00:44.056Z,1.80
2024-05-09T13:03:10.911Z,1.38
2024-05-09T13:05:37.708Z,2.10
2024-05-09T13:08:07.438Z,2.85
2024-05-09T13:10:34.959Z,5.07
2024-05-09T13:13:02.187Z,1.63
2024-05-09T13:15:30.543Z,2.38
2024-05-09T13:18:00.311Z,4.00
2024-05-09T13:20:35.870Z,1.45
2024-05-09T13:23:04.884Z,1.50
2024-05-09T13:25:34.914Z,2.38
2024-05-09T13:28:02.299Z,1.60
2024-05-09T13:30:37.728Z,1.73
2024-05-09T13:33:08.206Z,1.60
2024-05-09T13:35:35.964Z,1.42
2024-05-09T13:38:05.560Z,1.45
2024-05-09T13:40:36.230Z,1.73
2024-05-09T13:43:08.649Z,1.52
2024-05-09T13:45:35.334Z,1.75
2024-05-09T13:48:03.667Z,1.70
2024-05-09T13:50:34.673Z,1.73
2024-05-09T13:55:30.002Z,1.70
2024-05-09T14:00:37.675Z,1.50
2024-05-09T14:03:10.278Z,1.42
2024-05-09T14:05:37.102Z,1.40
2024-05-09T14:08:04.222Z,1.67
2024-05-09T14:10:32.095Z,1.75
2024-05-09T14:13:03.991Z,1.45
2024-05-09T14:15:32.938Z,1.75
2024-05-09T14:18:02.028Z,1.40
2024-05-09T14:20:31.630Z,2.15
2024-05-09T14:23:01.844Z,2.00
2024-05-09T14:25:30.154Z,1.42
2024-05-09T14:28:01.775Z,2.10
2024-05-09T14:30:35.850Z,1.85
2024-05-09T14:33:08.189Z,1.52
2024-05-09T14:35:35.708Z,1.73
2024-05-09T14:38:03.137Z,1.63
2024-05-09T14:40:40.194Z,1.40
2024-05-09T14:43:13.814Z,1.58
2024-05-09T14:45:41.181Z,2.00
2024-05-09T14:48:08.417Z,1.20
2024-05-09T14:50:38.642Z,1.48
2024-05-09T14:53:08.146Z,1.40
2024-05-09T14:55:40.441Z,1.40
2024-05-09T14:58:11.766Z,1.33
2024-05-09T15:00:47.768Z,1.50
2024-05-09T15:03:21.083Z,1.45
2024-05-09T15:05:48.785Z,1.90
2024-05-09T15:08:17.326Z,1.55
2024-05-09T15:10:46.731Z,1.58
2024-05-09T15:13:16.385Z,1.40
2024-05-09T15:15:44.036Z,1.63
2024-05-09T15:18:10.716Z,11.68
2024-05-09T15:20:37.993Z,2.38
2024-05-09T15:23:06.468Z,1.50
2024-05-09T15:25:34.380Z,1.33
2024-05-09T15:28:01.163Z,1.58
2024-05-09T15:30:31.270Z,1.50
2024-05-09T15:33:06.706Z,1.35
2024-05-09T15:35:34.589Z,1.30
2024-05-09T15:38:03.204Z,2.00
2024-05-09T15:40:37.502Z,1.30
2024-05-09T15:43:07.902Z,1.50
2024-05-09T15:45:35.570Z,1.30
2024-05-09T15:48:05.466Z,1.63
2024-05-09T15:50:37.876Z,1.90
2024-05-09T15:53:08.958Z,4.22
2024-05-09T15:55:36.532Z,1.50
2024-05-09T15:58:04.387Z,3.00
2024-05-09T16:03:03.545Z,1.55
2024-05-09T16:05:30.258Z,2.22
2024-05-09T16:07:57.072Z,1.50
2024-05-09T16:10:29.769Z,1.58
2024-05-09T16:12:59.348Z,1.83
2024-05-09T16:15:26.004Z,1.15
2024-05-09T16:22:53.525Z,1.40
2024-05-09T16:27:47.147Z,1.38
2024-05-09T16:30:21.273Z,1.50
2024-05-09T16:32:54.875Z,1.90
2024-05-09T16:35:21.623Z,2.10
2024-05-09T16:40:25.450Z,1.20
2024-05-09T16:43:06.350Z,1.92
2024-05-09T16:45:35.712Z,1.40
2024-05-09T16:48:02.756Z,1.77
2024-05-09T16:50:33.752Z,1.23
2024-05-09T16:53:06.087Z,1.15
2024-05-09T16:55:36.317Z,2.00
2024-05-09T16:58:03.558Z,2.40
2024-05-09T17:00:38.896Z,1.67
2024-05-09T17:03:13.299Z,1.70
2024-05-09T17:05:41.443Z,1.80
2024-05-09T17:08:08.719Z,1.98
2024-05-09T17:10:38.399Z,2.45
2024-05-09T17:13:07.059Z,2.40
2024-05-09T17:15:37.668Z,2.03
2024-05-09T17:18:07.714Z,2.08
2024-05-09T17:20:37.800Z,2.28
2024-05-09T17:23:12.312Z,2.55
2024-05-09T17:25:39.668Z,2.42
2024-05-09T17:28:09.476Z,2.22
2024-05-09T17:30:38.766Z,2.13
2024-05-09T17:33:08.884Z,1.70
2024-05-09T17:35:36.714Z,2.28
2024-05-09T17:38:06.626Z,1.95
2024-05-09T17:40:36.190Z,1.85
2024-05-09T17:43:08.980Z,2.25
2024-05-09T17:45:38.403Z,1.70
2024-05-09T17:48:06.207Z,1.60
2024-05-09T17:50:36.049Z,1.88
2024-05-09T17:53:05.700Z,2.53
2024-05-09T17:55:32.656Z,1.88
2024-05-09T17:57:59.382Z,1.85
2024-05-09T18:03:07.269Z,20.77
2024-05-09T18:05:38.975Z,5.75
2024-05-09T18:08:09.247Z,4.25
2024-05-09T18:10:38.820Z,2.00
2024-05-09T18:13:11.236Z,2.08
2024-05-09T18:15:39.050Z,1.77
2024-05-09T18:18:06.962Z,5.18
2024-05-09T18:20:41.827Z,2.35
2024-05-09T18:23:13.149Z,2.50
2024-05-09T18:25:42.439Z,2.58
2024-05-09T18:28:09.394Z,4.50
2024-05-09T18:30:37.330Z,10.43
2024-05-09T18:33:09.196Z,6.07
2024-05-09T18:35:36.382Z,4.05
2024-05-09T18:38:03.730Z,4.45
2024-05-09T18:40:34.644Z,6.80
2024-05-09T18:43:05.849Z,2.78
2024-05-09T18:45:33.982Z,6.82
2024-05-09T18:50:35.050Z,4.72
2024-05-09T18:53:13.919Z,7.88
2024-05-09T18:55:46.429Z,12.60
2024-05-09T18:58:13.184Z,11.20
2024-05-09T19:03:13.762Z,18.65
2024-05-09T19:05:45.348Z,12.13
2024-05-09T19:08:12.979Z,13.68
2024-05-09T19:10:39.887Z,15.93
2024-05-09T19:13:11.739Z,12.00
2024-05-09T19:15:43.556Z,12.30
2024-05-09T19:18:15.166Z,11.95
2024-05-09T19:20:47.065Z,9.63
2024-05-09T19:23:15.898Z,11.15
2024-05-09T19:25:45.548Z,6.30
2024-05-09T19:28:12.089Z,8.18
2024-05-09T19:30:42.728Z,5.00
2024-05-09T19:33:13.868Z,5.10
2024-05-09T19:35:41.624Z,6.55
2024-05-09T19:38:08.272Z,9.50
2024-05-09T19:40:35.707Z,5.53
2024-05-09T19:43:06.146Z,6.13
2024-05-09T19:45:34.845Z,8.35
2024-05-09T19:48:02.616Z,6.13
2024-05-09T19:50:39.814Z,9.85
2024-05-09T19:53:11.286Z,7.38
2024-05-09T19:55:38.246Z,6.00
2024-05-09T19:58:11.902Z,6.97
2024-05-09T20:00:41.931Z,14.93
2024-05-09T20:03:14.689Z,14.88
2024-05-09T20:05:44.341Z,15.38
2024-05-09T20:08:14.375Z,16.95
2024-05-09T20:10:41.049Z,13.52
2024-05-09T20:13:08.406Z,5.65
2024-05-09T20:15:36.755Z,4.68
2024-05-09T20:18:04.389Z,4.60
2024-05-09T20:20:37.716Z,4.90
2024-05-09T20:23:08.715Z,5.13
2024-05-09T20:25:35.308Z,6.07
2024-05-09T20:28:01.965Z,8.10
2024-05-09T20:30:32.477Z,8.35
2024-05-09T20:33:03.424Z,9.98
2024-05-09T20:35:34.830Z,8.05
2024-05-09T20:38:04.508Z,7.75
2024-05-09T20:40:35.675Z,5.45
2024-05-09T20:43:05.984Z,4.70
2024-05-09T20:45:35.791Z,5.22
2024-05-09T20:48:02.936Z,6.25
2024-05-09T20:50:37.811Z,5.78
2024-05-09T20:53:14.760Z,9.00
2024-05-09T20:55:45.549Z,6.43
2024-05-09T20:58:12.873Z,9.00
2024-05-09T21:00:43.229Z,10.18
2024-05-09T21:03:16.484Z,7.00
2024-05-09T21:05:44.294Z,6.75
2024-05-09T21:08:11.131Z,5.63
2024-05-09T21:10:38.009Z,5.60
2024-05-09T21:13:05.703Z,3.83
2024-05-09T21:15:36.358Z,4.07
2024-05-09T21:18:03.572Z,3.72
2024-05-09T21:20:34.588Z,4.47
2024-05-09T21:23:04.132Z,3.60
2024-05-09T21:25:31.343Z,7.38
2024-05-09T21:28:00.337Z,6.95
2024-05-09T21:30:36.881Z,8.80
2024-05-09T21:33:12.460Z,9.02
2024-05-09T21:35:41.452Z,6.10
2024-05-09T21:38:08.206Z,4.28
2024-05-09T21:40:36.492Z,4.50
2024-05-09T21:43:04.813Z,4.45
2024-05-09T21:45:31.593Z,3.67
2024-05-09T21:48:00.582Z,3.17
2024-05-09T21:50:36.353Z,3.33
2024-05-09T21:53:10.109Z,4.40
2024-05-09T21:55:36.740Z,4.22
2024-05-09T21:58:03.822Z,6.18
2024-05-09T22:00:36.340Z,6.53
2024-05-09T22:03:09.936Z,6.22
2024-05-09T22:05:39.058Z,5.03
2024-05-09T22:08:06.183Z,4.25
2024-05-09T22:10:35.520Z,4.22
2024-05-09T22:13:07.177Z,5.53
2024-05-09T22:15:37.004Z,5.82
2024-05-09T22:18:08.240Z,5.20
2024-05-09T22:20:38.476Z,4.40
2024-05-09T22:23:06.868Z,3.85
2024-05-09T22:25:33.866Z,4.43
2024-05-09T22:30:37.362Z,4.68
2024-05-09T22:33:11.433Z,3.05
2024-05-09T22:35:39.081Z,3.08
2024-05-09T22:38:06.021Z,2.63
2024-05-09T22:43:17.867Z,2.38
2024-05-09T22:45:44.820Z,2.20
2024-05-09T22:48:11.528Z,2.20
2024-05-09T22:50:38.161Z,2.10
2024-05-09T22:53:05.535Z,2.20
2024-05-09T22:55:34.553Z,2.45
2024-05-09T22:58:01.232Z,2.50
2024-05-09T23:00:31.728Z,2.30
2024-05-09T23:03:00.415Z,2.40
2024-05-09T23:05:27.555Z,2.10
2024-05-09T23:07:54.351Z,2.20
2024-05-09T23:10:27.298Z,2.00
2024-05-09T23:12:58.783Z,2.10
2024-05-09T23:15:25.452Z,1.85
2024-05-09T23:17:52.211Z,2.08
2024-05-09T23:20:29.664Z,2.13
2024-05-09T23:23:03.373Z,2.08
2024-05-09T23:25:32.466Z,2.20
2024-05-09T23:27:59.236Z,2.15
2024-05-09T23:30:34.017Z,2.33
2024-05-09T23:33:06.005Z,2.10
2024-05-09T23:35:32.746Z,2.40
2024-05-09T23:37:59.467Z,2.00
2024-05-09T23:40:36.916Z,2.42
2024-05-09T23:43:06.982Z,1.90
2024-05-09T23:45:33.822Z,2.30
2024-05-09T23:48:01.041Z,2.30
2024-05-09T23:50:34.408Z,2.40
2024-05-09T23:53:04.381Z,2.42
2024-05-09T23:55:31.932Z,2.63
2024-05-09T23:58:01.234Z,2.17
